Time,TemperatureF,DewpointF,PressureIn,WindDirection,WindDirectionDegrees,WindSpeedMPH,WindSpeedGustMPH,Humidity,HourlyPrecipIn,Conditions,Clouds,dailyrainin,SoftwareType,DateUTC
2013-03-15 00:03:00,32.3,30.0,30.06,NW,325,0.0,0.0,91,0.00,,,0.00,Wunderground v.1.15,2013-03-15 05:03:00,
2013-03-15 00:08:00,32.2,30.1,30.05,NW,325,0.0,0.0,92,0.00,,,0.00,Wunderground v.1.15,2013-03-15 05:08:00,
2013-03-15 00:14:00,32.1,30.0,30.05,NW,325,0.0,0.0,92,0.00,,,0.00,Wunderground v.1.15,2013-03-15 05:14:00,
2013-03-15 00:19:00,32.0,29.9,30.04,NW,325,0.0,0.0,92,0.00,,,0.00,Wunderground v.1.15,2013-03-15 05:19:00,
2013-03-15 00:25:00,32.0,29.9,30.04,NW,325,0.0,0.0,92,0.00,,,0.00,Wunderground v.1.15,2013-03-15 05:25:00,
2013-03-15 00:32:00,32.1,30.3,30.04,NW,325,1.0,1.0,93,0.00,,,0.00,Wunderground v.1.15,2013-03-15 05:32:00,
2013-03-15 00:38:00,32.1,30.3,30.03,NW,325,2.0,2.0,93,0.00,,,0.00,Wunderground v.1.15,2013-03-15 05:38:00,
2013-03-15 00:44:00,31.9,29.8,30.03,NW,325,2.0,2.0,92,0.00,,,0.00,Wunderground v.1.15,2013-03-15 05:44:00,
2013-03-15 00:49:00,31.8,29.7,30.04,NW,325,2.0,5.0,92,0.00,,,0.00,Wunderground v.1.15,2013-03-15 05:49:00,
2013-03-15 00:55:00,31.5,29.4,30.04,NW,325,3.0,4.0,92,0.00,,,0.00,Wunderground v.1.15,2013-03-15 05:55:00,
2013-03-15 01:00:00,31.2,29.4,30.04,NW,325,0.0,2.0,93,0.00,,,0.00,Wunderground v.1.15,2013-03-15 06:00:00,
2013-03-15 01:12:00,31.2,29.4,30.03,NW,325,2.0,2.0,93,0.00,,,0.00,Wunderground v.1.15,2013-03-15 06:12:00,
2013-03-15 01:18:00,31.2,29.4,30.02,NW,325,1.0,3.0,93,0.00,,,0.00,Wunderground v.1.15,2013-03-15 06:18:00,
2013-03-15 01:23:00,31.1,29.3,30.02,NW,325,2.0,2.0,93,0.00,,,0.00,Wunderground v.1.15,2013-03-15 06:23:00,
2013-03-15 01:29:00,31.1,29.3,30.02,NW,325,0.0,2.0,93,0.00,,,0.00,Wunderground v.1.15,2013-03-15 06:29:00,
2013-03-15 01:34:00,31.1,29.3,30.02,NW,325,0.0,1.0,93,0.00,,,0.00,Wunderground v.1.15,2013-03-15 06:34:00,
2013-03-15 01:39:00,31.1,29.3,30.02,NW,325,1.0,2.0,93,0.00,,,0.00,Wunderground v.1.15,2013-03-15 06:39:00,
2013-03-15 01:45:00,31.1,29.3,30.01,NW,325,0.0,1.0,93,0.00,,,0.00,Wunderground v.1.15,2013-03-15 06:45:00,
2013-03-15 02:02:00,31.2,29.7,30.02,NW,318,2.0,2.0,94,0.00,,,0.00,Wunderground v.1.15,2013-03-15 07:02:00,
2013-03-15 02:07:00,31.3,29.8,30.03,NW,312,4.0,5.0,94,0.00,,,0.00,Wunderground v.1.15,2013-03-15 07:07:00,
2013-03-15 02:12:00,31.5,30.0,30.02,NW,309,3.0,4.0,94,0.00,,,0.00,Wunderground v.1.15,2013-03-15 07:12:00,
2013-03-15 02:17:00,31.7,30.2,30.02,NW,308,3.0,4.0,94,0.00,,,0.00,Wunderground v.1.15,2013-03-15 07:17:00,
2013-03-15 02:22:00,31.8,30.0,30.02,NW,306,3.0,3.0,93,0.00,,,0.00,Wunderground v.1.15,2013-03-15 07:22:00,
2013-03-15 02:28:00,31.8,30.0,30.02,NW,305,3.0,4.0,93,0.00,,,0.00,Wunderground v.1.15,2013-03-15 07:28:00,
2013-03-15 02:33:00,31.8,30.0,30.02,NW,304,2.0,3.0,93,0.00,,,0.00,Wunderground v.1.15,2013-03-15 07:33:00,
2013-03-15 02:38:00,31.8,30.0,30.02,NW,304,3.0,4.0,93,0.00,,,0.00,Wunderground v.1.15,2013-03-15 07:38:00,
2013-03-15 02:43:00,31.8,30.0,30.02,NW,304,3.0,3.0,93,0.00,,,0.00,Wunderground v.1.15,2013-03-15 07:43:00,
2013-03-15 02:48:00,31.8,30.0,30.02,NW,304,3.0,4.0,93,0.00,,,0.00,Wunderground v.1.15,2013-03-15 07:48:00,
2013-03-15 02:53:00,31.8,30.0,30.01,NW,304,3.0,3.0,93,0.00,,,0.00,Wunderground v.1.15,2013-03-15 07:53:00,
2013-03-15 02:58:00,31.7,29.9,30.01,NW,304,3.0,3.0,93,0.00,,,0.00,Wunderground v.1.15,2013-03-15 07:58:00,
2013-03-15 03:03:00,31.6,29.8,30.01,NW,304,3.0,3.0,93,0.00,,,0.00,Wunderground v.1.15,2013-03-15 08:03:00,
2013-03-15 03:08:00,31.6,29.8,30.01,NW,304,3.0,5.0,93,0.00,,,0.00,Wunderground v.1.15,2013-03-15 08:08:00,
2013-03-15 03:13:00,31.7,29.9,30.01,NW,304,2.0,3.0,93,0.00,,,0.00,Wunderground v.1.15,2013-03-15 08:13:00,
2013-03-15 03:18:00,31.7,29.9,30.00,NW,304,1.0,3.0,93,0.00,,,0.00,Wunderground v.1.15,2013-03-15 08:18:00,
2013-03-15 03:23:00,31.8,30.0,30.00,NW,304,2.0,2.0,93,0.00,,,0.00,Wunderground v.1.15,2013-03-15 08:23:00,
2013-03-15 03:28:00,31.9,30.1,29.99,NW,304,1.0,3.0,93,0.00,,,0.00,Wunderground v.1.15,2013-03-15 08:28:00,
2013-03-15 03:33:00,32.0,30.2,29.99,NW,304,1.0,2.0,93,0.00,,,0.00,Wunderground v.1.15,2013-03-15 08:33:00,
2013-03-15 03:38:00,31.9,30.1,29.99,NW,304,2.0,3.0,93,0.00,,,0.00,Wunderground v.1.15,2013-03-15 08:38:00,
2013-03-15 03:43:00,31.8,30.0,29.99,NW,304,2.0,2.0,93,0.00,,,0.00,Wunderground v.1.15,2013-03-15 08:43:00,
2013-03-15 03:48:00,31.7,29.9,29.99,NW,304,2.0,3.0,93,0.00,,,0.00,Wunderground v.1.15,2013-03-15 08:48:00,
2013-03-15 03:53:00,31.6,29.8,29.98,NW,304,2.0,3.0,93,0.00,,,0.00,Wunderground v.1.15,2013-03-15 08:53:00,
2013-03-15 03:58:00,31.6,29.8,29.98,NW,304,2.0,3.0,93,0.00,,,0.00,Wunderground v.1.15,2013-03-15 08:58:00,
2013-03-15 04:03:00,31.6,29.8,29.98,NW,304,2.0,3.0,93,0.00,,,0.00,Wunderground v.1.15,2013-03-15 09:03:00,
2013-03-15 04:08:00,31.6,29.8,29.97,NW,304,4.0,5.0,93,0.00,,,0.00,Wunderground v.1.15,2013-03-15 09:08:00,
2013-03-15 04:13:00,31.6,29.8,29.97,NW,304,4.0,4.0,93,0.00,,,0.00,Wunderground v.1.15,2013-03-15 09:13:00,
2013-03-15 04:18:00,31.6,29.8,29.97,NW,304,0.0,4.0,93,0.00,,,0.00,Wunderground v.1.15,2013-03-15 09:18:00,
2013-03-15 04:23:00,31.6,29.8,29.96,NW,304,0.0,2.0,93,0.00,,,0.00,Wunderground v.1.15,2013-03-15 09:23:00,
2013-03-15 04:28:00,31.6,29.8,29.96,NW,304,1.0,4.0,93,0.00,,,0.00,Wunderground v.1.15,2013-03-15 09:28:00,
2013-03-15 04:33:00,31.6,29.8,29.96,NW,304,2.0,2.0,93,0.00,,,0.00,Wunderground v.1.15,2013-03-15 09:33:00,
2013-03-15 04:38:00,31.5,29.7,29.96,NW,304,2.0,2.0,93,0.00,,,0.00,Wunderground v.1.15,2013-03-15 09:38:00,
2013-03-15 04:43:00,31.4,29.6,29.96,NW,304,2.0,2.0,93,0.00,,,0.00,Wunderground v.1.15,2013-03-15 09:43:00,
2013-03-15 04:48:00,31.4,29.6,29.95,NW,304,0.0,2.0,93,0.00,,,0.00,Wunderground v.1.15,2013-03-15 09:48:00,
2013-03-15 04:53:00,31.4,29.6,29.96,NW,304,2.0,3.0,93,0.00,,,0.00,Wunderground v.1.15,2013-03-15 09:53:00,
2013-03-15 04:58:00,31.5,29.7,29.96,NW,304,2.0,3.0,93,0.00,,,0.00,Wunderground v.1.15,2013-03-15 09:58:00,
2013-03-15 05:03:00,31.3,29.5,29.96,NW,304,1.0,2.0,93,0.00,,,0.00,Wunderground v.1.15,2013-03-15 10:03:00,
2013-03-15 05:08:00,31.3,29.5,29.95,NW,304,1.0,2.0,93,0.00,,,0.00,Wunderground v.1.15,2013-03-15 10:08:00,
2013-03-15 05:13:00,31.3,29.5,29.95,NW,304,2.0,2.0,93,0.00,,,0.00,Wunderground v.1.15,2013-03-15 10:13:00,
2013-03-15 05:18:00,31.4,29.6,29.95,NW,304,2.0,2.0,93,0.00,,,0.00,Wunderground v.1.15,2013-03-15 10:18:00,
2013-03-15 05:23:00,31.3,29.5,29.95,NW,304,0.0,1.0,93,0.00,,,0.00,Wunderground v.1.15,2013-03-15 10:23:00,
2013-03-15 05:28:00,31.3,29.5,29.95,NW,304,0.0,2.0,93,0.00,,,0.00,Wunderground v.1.15,2013-03-15 10:28:00,
2013-03-15 05:33:00,31.4,29.6,29.95,NW,304,0.0,0.0,93,0.00,,,0.00,Wunderground v.1.15,2013-03-15 10:33:00,
2013-03-15 05:38:00,31.4,29.6,29.95,NW,304,1.0,2.0,93,0.00,,,0.00,Wunderground v.1.15,2013-03-15 10:38:00,
2013-03-15 05:43:00,31.4,29.6,29.96,NW,304,1.0,2.0,93,0.00,,,0.00,Wunderground v.1.15,2013-03-15 10:43:00,
2013-03-15 05:48:00,31.5,29.7,29.96,NW,304,3.0,4.0,93,0.00,,,0.00,Wunderground v.1.15,2013-03-15 10:48:00,
2013-03-15 05:53:00,31.6,29.8,29.96,NW,305,4.0,5.0,93,0.00,,,0.00,Wunderground v.1.15,2013-03-15 10:53:00,
2013-03-15 05:58:00,31.8,30.0,29.97,NW,318,6.0,6.0,93,0.00,,,0.00,Wunderground v.1.15,2013-03-15 10:58:00,
2013-03-15 06:03:00,31.9,30.1,29.97,NW,319,3.0,5.0,93,0.00,,,0.00,Wunderground v.1.15,2013-03-15 11:03:00,
2013-03-15 06:08:00,32.0,30.2,29.97,NW,319,2.0,5.0,93,0.00,,,0.00,Wunderground v.1.15,2013-03-15 11:08:00,
2013-03-15 06:13:00,32.1,30.3,29.96,NW,319,3.0,4.0,93,0.00,,,0.00,Wunderground v.1.15,2013-03-15 11:13:00,
2013-03-15 06:18:00,32.1,30.3,29.96,NW,319,3.0,4.0,93,0.00,,,0.00,Wunderground v.1.15,2013-03-15 11:18:00,
2013-03-15 06:23:00,32.1,30.3,29.97,NW,319,6.0,6.0,93,0.00,,,0.00,Wunderground v.1.15,2013-03-15 11:23:00,
2013-03-15 06:28:00,32.2,30.4,29.97,NW,319,4.0,6.0,93,0.00,,,0.00,Wunderground v.1.15,2013-03-15 11:28:00,
2013-03-15 06:33:00,32.2,30.4,29.97,NW,320,3.0,5.0,93,0.00,,,0.00,Wunderground v.1.15,2013-03-15 11:33:00,
2013-03-15 06:38:00,32.3,30.5,29.96,NW,322,4.0,6.0,93,0.00,,,0.00,Wunderground v.1.15,2013-03-15 11:38:00,
2013-03-15 06:44:00,32.3,30.5,29.96,NNW,332,5.0,5.0,93,0.00,,,0.00,Wunderground v.1.15,2013-03-15 11:44:00,
2013-03-15 06:49:00,32.4,30.6,29.96,NNW,344,5.0,6.0,93,0.00,,,0.00,Wunderground v.1.15,2013-03-15 11:49:00,
2013-03-15 06:54:00,32.6,30.8,29.96,NNW,347,6.0,6.0,93,0.00,,,0.00,Wunderground v.1.15,2013-03-15 11:54:00,
2013-03-15 06:59:00,32.8,31.0,29.96,NNW,348,6.0,7.0,93,0.00,,,0.00,Wunderground v.1.15,2013-03-15 11:59:00,
2013-03-15 07:04:00,32.9,31.1,29.96,North,355,5.0,6.0,93,0.00,,,0.00,Wunderground v.1.15,2013-03-15 12:04:00,
2013-03-15 07:09:00,33.0,31.2,29.95,North,355,4.0,6.0,93,0.00,,,0.00,Wunderground v.1.15,2013-03-15 12:09:00,
2013-03-15 07:14:00,33.1,31.3,29.95,North,355,2.0,5.0,93,0.00,,,0.00,Wunderground v.1.15,2013-03-15 12:14:00,
2013-03-15 07:19:00,33.1,31.3,29.96,North,355,3.0,5.0,93,0.00,,,0.00,Wunderground v.1.15,2013-03-15 12:19:00,
2013-03-15 07:24:00,33.1,31.0,29.96,North,355,4.0,4.0,92,0.00,,,0.00,Wunderground v.1.15,2013-03-15 12:24:00,
2013-03-15 07:29:00,33.1,31.0,29.96,North,355,4.0,4.0,92,0.00,,,0.00,Wunderground v.1.15,2013-03-15 12:29:00,
2013-03-15 07:34:00,33.1,31.0,29.95,North,355,4.0,5.0,92,0.00,,,0.00,Wunderground v.1.15,2013-03-15 12:34:00,
2013-03-15 07:39:00,33.0,30.9,29.96,North,355,4.0,5.0,92,0.00,,,0.00,Wunderground v.1.15,2013-03-15 12:39:00,
2013-03-15 07:44:00,33.0,30.9,29.95,North,360,4.0,5.0,92,0.00,,,0.00,Wunderground v.1.15,2013-03-15 12:44:00,
2013-03-15 07:49:00,33.0,30.9,29.95,North,360,3.0,5.0,92,0.00,,,0.00,Wunderground v.1.15,2013-03-15 12:49:00,
2013-03-15 07:54:00,33.0,30.9,29.95,North,5,5.0,6.0,92,0.00,,,0.00,Wunderground v.1.15,2013-03-15 12:54:00,
2013-03-15 07:59:00,33.1,31.0,29.95,North,5,3.0,6.0,92,0.00,,,0.00,Wunderground v.1.15,2013-03-15 12:59:00,
2013-03-15 08:04:00,33.2,31.1,29.95,North,5,2.0,4.0,92,0.00,,,0.00,Wunderground v.1.15,2013-03-15 13:04:00,
2013-03-15 08:09:00,33.2,31.1,29.95,North,5,0.0,2.0,92,0.00,,,0.00,Wunderground v.1.15,2013-03-15 13:09:00,
2013-03-15 08:14:00,33.3,31.2,29.95,North,5,0.0,1.0,92,0.00,,,0.00,Wunderground v.1.15,2013-03-15 13:14:00,
2013-03-15 08:19:00,33.3,31.2,29.94,North,5,0.0,1.0,92,0.00,,,0.00,Wunderground v.1.15,2013-03-15 13:19:00,
2013-03-15 08:24:00,33.3,31.2,29.94,North,5,0.0,0.0,92,0.00,,,0.00,Wunderground v.1.15,2013-03-15 13:24:00,
2013-03-15 08:29:00,33.3,31.2,29.93,North,5,0.0,0.0,92,0.00,,,0.00,Wunderground v.1.15,2013-03-15 13:29:00,
2013-03-15 08:34:00,33.4,31.3,29.92,North,5,1.0,2.0,92,0.00,,,0.00,Wunderground v.1.15,2013-03-15 13:34:00,
2013-03-15 08:39:00,33.5,31.4,29.92,North,5,1.0,2.0,92,0.00,,,0.00,Wunderground v.1.15,2013-03-15 13:39:00,
2013-03-15 08:44:00,33.6,31.5,29.91,North,5,0.0,2.0,92,0.00,,,0.00,Wunderground v.1.15,2013-03-15 13:44:00,
2013-03-15 08:49:00,33.6,31.8,29.91,North,5,0.0,2.0,93,0.00,,,0.00,Wunderground v.1.15,2013-03-15 13:49:00,
2013-03-15 08:54:00,33.7,31.6,29.91,North,5,0.0,1.0,92,0.00,,,0.00,Wunderground v.1.15,2013-03-15 13:54:00,
2013-03-15 08:59:00,33.7,31.6,29.91,North,5,2.0,2.0,92,0.00,,,0.00,Wunderground v.1.15,2013-03-15 13:59:00,
2013-03-15 09:04:00,33.8,31.7,29.90,North,5,0.0,1.0,92,0.00,,,0.00,Wunderground v.1.15,2013-03-15 14:04:00,
2013-03-15 09:09:00,33.9,31.8,29.90,North,5,0.0,0.0,92,0.00,,,0.00,Wunderground v.1.15,2013-03-15 14:09:00,
2013-03-15 09:14:00,34.0,31.9,29.90,North,5,0.0,1.0,92,0.00,,,0.00,Wunderground v.1.15,2013-03-15 14:14:00,
2013-03-15 09:19:00,34.1,32.3,29.90,North,5,0.0,1.0,93,0.00,,,0.00,Wunderground v.1.15,2013-03-15 14:19:00,
2013-03-15 09:24:00,34.3,32.2,29.91,North,5,0.0,0.0,92,0.00,,,0.00,Wunderground v.1.15,2013-03-15 14:24:00,
2013-03-15 09:29:00,34.4,32.3,29.91,North,5,0.0,1.0,92,0.00,,,0.00,Wunderground v.1.15,2013-03-15 14:29:00,
2013-03-15 09:34:00,34.5,32.4,29.91,North,5,0.0,2.0,92,0.00,,,0.00,Wunderground v.1.15,2013-03-15 14:34:00,
2013-03-15 09:39:00,34.6,32.5,29.91,North,5,0.0,2.0,92,0.00,,,0.00,Wunderground v.1.15,2013-03-15 14:39:00,
2013-03-15 09:45:00,34.7,32.6,29.91,North,5,0.0,2.0,92,0.00,,,0.00,Wunderground v.1.15,2013-03-15 14:45:00,
2013-03-15 09:50:00,34.7,32.6,29.91,North,5,3.0,3.0,92,0.00,,,0.00,Wunderground v.1.15,2013-03-15 14:50:00,
2013-03-15 09:55:00,34.6,32.5,29.92,North,5,1.0,3.0,92,0.00,,,0.00,Wunderground v.1.15,2013-03-15 14:55:00,
2013-03-15 10:00:00,34.6,32.5,29.92,North,5,2.0,2.0,92,0.00,,,0.00,Wunderground v.1.15,2013-03-15 15:00:00,
2013-03-15 10:05:00,34.5,32.4,29.91,North,5,1.0,2.0,92,0.00,,,0.00,Wunderground v.1.15,2013-03-15 15:05:00,
2013-03-15 10:10:00,34.6,32.8,29.91,North,10,3.0,3.0,93,0.00,,,0.00,Wunderground v.1.15,2013-03-15 15:10:00,
2013-03-15 10:15:00,34.7,32.9,29.90,NNE,28,2.0,3.0,93,0.00,,,0.00,Wunderground v.1.15,2013-03-15 15:15:00,
2013-03-15 10:20:00,34.8,33.0,29.91,SSE,166,6.0,7.0,93,0.00,,,0.00,Wunderground v.1.15,2013-03-15 15:20:00,
2013-03-15 10:25:00,34.7,32.9,29.90,SSE,164,6.0,9.0,93,0.00,,,0.00,Wunderground v.1.15,2013-03-15 15:25:00,
2013-03-15 10:30:00,34.6,32.8,29.90,SSE,164,2.0,9.0,93,0.00,,,0.00,Wunderground v.1.15,2013-03-15 15:30:00,
2013-03-15 10:35:00,34.8,33.0,29.89,SSE,150,2.0,6.0,93,0.00,,,0.00,Wunderground v.1.15,2013-03-15 15:35:00,
2013-03-15 10:40:00,34.9,33.1,29.90,SSE,153,2.0,6.0,93,0.00,,,0.00,Wunderground v.1.15,2013-03-15 15:40:00,
2013-03-15 10:45:00,35.1,33.3,29.89,SSE,148,2.0,5.0,93,0.00,,,0.00,Wunderground v.1.15,2013-03-15 15:45:00,
2013-03-15 10:50:00,35.2,33.4,29.88,SE,144,4.0,6.0,93,0.00,,,0.00,Wunderground v.1.15,2013-03-15 15:50:00,
2013-03-15 10:55:00,35.3,33.5,29.88,SE,145,5.0,7.0,93,0.00,,,0.00,Wunderground v.1.15,2013-03-15 15:55:00,
2013-03-15 11:00:00,35.4,33.6,29.88,SE,146,6.0,7.0,93,0.00,,,0.00,Wunderground v.1.15,2013-03-15 16:00:00,
2013-03-15 11:05:00,35.5,33.7,29.88,SE,143,1.0,6.0,93,0.00,,,0.00,Wunderground v.1.15,2013-03-15 16:05:00,
2013-03-15 11:10:00,35.7,33.9,29.87,SE,134,2.0,5.0,93,0.00,,,0.00,Wunderground v.1.15,2013-03-15 16:10:00,
2013-03-15 11:15:00,35.9,34.1,29.87,SE,141,1.0,6.0,93,0.00,,,0.00,Wunderground v.1.15,2013-03-15 16:15:00,
2013-03-15 11:20:00,36.1,34.3,29.87,SE,138,0.0,6.0,93,0.00,,,0.00,Wunderground v.1.15,2013-03-15 16:20:00,
2013-03-15 11:25:00,36.4,34.3,29.87,SE,138,0.0,2.0,92,0.00,,,0.00,Wunderground v.1.15,2013-03-15 16:25:00,
2013-03-15 11:30:00,36.8,34.7,29.88,SE,138,0.0,2.0,92,0.00,,,0.00,Wunderground v.1.15,2013-03-15 16:30:00,
2013-03-15 11:35:00,37.2,35.1,29.88,SE,138,0.0,1.0,92,0.00,,,0.00,Wunderground v.1.15,2013-03-15 16:35:00,
2013-03-15 11:40:00,37.6,35.5,29.87,SE,138,0.0,2.0,92,0.00,,,0.00,Wunderground v.1.15,2013-03-15 16:40:00,
2013-03-15 11:45:00,38.0,35.6,29.87,SE,138,0.0,0.0,91,0.00,,,0.00,Wunderground v.1.15,2013-03-15 16:45:00,
2013-03-15 11:50:00,38.3,35.6,29.87,SE,138,1.0,4.0,90,0.00,,,0.00,Wunderground v.1.15,2013-03-15 16:50:00,
2013-03-15 11:55:00,38.3,35.3,29.87,SE,135,4.0,4.0,89,0.00,,,0.00,Wunderground v.1.15,2013-03-15 16:55:00,
2013-03-15 12:00:00,38.2,35.2,29.87,SE,129,2.0,2.0,89,0.00,,,0.00,Wunderground v.1.15,2013-03-15 17:00:00,
2013-03-15 12:05:00,38.2,35.2,29.87,SE,127,0.0,2.0,89,0.00,,,0.00,Wunderground v.1.15,2013-03-15 17:05:00,
2013-03-15 12:10:00,38.5,35.5,29.87,SE,129,2.0,5.0,89,0.00,,,0.00,Wunderground v.1.15,2013-03-15 17:10:00,
2013-03-15 12:15:00,39.0,36.0,29.86,SE,128,1.0,2.0,89,0.00,,,0.00,Wunderground v.1.15,2013-03-15 17:15:00,
2013-03-15 12:22:00,39.5,36.2,29.86,ESE,115,0.0,1.0,88,0.00,,,0.00,Wunderground v.1.15,2013-03-15 17:22:00,
2013-03-15 12:27:00,39.7,36.4,29.86,ESE,115,0.0,4.0,88,0.00,,,0.00,Wunderground v.1.15,2013-03-15 17:27:00,
2013-03-15 12:32:00,39.9,36.6,29.86,ESE,115,2.0,2.0,88,0.00,,,0.00,Wunderground v.1.15,2013-03-15 17:32:00,
2013-03-15 12:37:00,40.1,36.8,29.86,ESE,115,1.0,2.0,88,0.00,,,0.00,Wunderground v.1.15,2013-03-15 17:37:00,
2013-03-15 12:42:00,40.3,37.0,29.86,ESE,115,1.0,2.0,88,0.00,,,0.00,Wunderground v.1.15,2013-03-15 17:42:00,
2013-03-15 12:47:00,40.4,37.1,29.86,ESE,115,1.0,2.0,88,0.00,,,0.00,Wunderground v.1.15,2013-03-15 17:47:00,
2013-03-15 12:52:00,40.5,37.2,29.86,ESE,115,1.0,1.0,88,0.00,,,0.00,Wunderground v.1.15,2013-03-15 17:52:00,
2013-03-15 12:58:00,40.7,37.4,29.86,ESE,114,0.0,2.0,88,0.00,,,0.00,Wunderground v.1.15,2013-03-15 17:58:00,
2013-03-15 13:03:00,41.0,37.4,29.85,ESE,109,1.0,2.0,87,0.00,,,0.00,Wunderground v.1.15,2013-03-15 18:03:00,
2013-03-15 13:08:00,41.2,37.6,29.85,ESE,105,2.0,5.0,87,0.00,,,0.00,Wunderground v.1.15,2013-03-15 18:08:00,
2013-03-15 13:13:00,41.4,37.8,29.84,ESE,106,4.0,5.0,87,0.00,,,0.00,Wunderground v.1.15,2013-03-15 18:13:00,
2013-03-15 13:18:00,41.5,37.6,29.84,ESE,115,2.0,7.0,86,0.00,,,0.00,Wunderground v.1.15,2013-03-15 18:18:00,
2013-03-15 13:23:00,41.8,38.2,29.84,ESE,109,1.0,4.0,87,0.00,,,0.00,Wunderground v.1.15,2013-03-15 18:23:00,
2013-03-15 13:28:00,42.0,38.1,29.83,ESE,105,2.0,5.0,86,0.00,,,0.00,Wunderground v.1.15,2013-03-15 18:28:00,
2013-03-15 13:33:00,42.1,37.9,29.83,ESE,105,2.0,3.0,85,0.00,,,0.00,Wunderground v.1.15,2013-03-15 18:33:00,
2013-03-15 13:38:00,42.3,38.4,29.83,East,88,4.0,4.0,86,0.00,,,0.00,Wunderground v.1.15,2013-03-15 18:38:00,
2013-03-15 13:43:00,42.6,38.4,29.83,ESE,103,2.0,3.0,85,0.00,,,0.00,Wunderground v.1.15,2013-03-15 18:43:00,
2013-03-15 13:48:00,42.9,38.7,29.83,East,100,1.0,4.0,85,0.00,,,0.00,Wunderground v.1.15,2013-03-15 18:48:00,
2013-03-15 13:53:00,43.1,38.9,29.83,East,96,2.0,2.0,85,0.00,,,0.00,Wunderground v.1.15,2013-03-15 18:53:00,
2013-03-15 13:58:00,43.3,39.1,29.82,East,97,0.0,4.0,85,0.00,,,0.00,Wunderground v.1.15,2013-03-15 18:58:00,
2013-03-15 14:03:00,43.6,39.4,29.82,East,97,1.0,2.0,85,0.00,,,0.00,Wunderground v.1.15,2013-03-15 19:03:00,
2013-03-15 14:08:00,43.7,39.2,29.81,ESE,106,1.0,5.0,84,0.00,,,0.00,Wunderground v.1.15,2013-03-15 19:08:00,
2013-03-15 14:13:00,44.1,39.9,29.81,ESE,112,0.0,1.0,85,0.00,,,0.00,Wunderground v.1.15,2013-03-15 19:13:00,
2013-03-15 14:18:00,44.3,39.8,29.81,East,94,5.0,5.0,84,0.00,,,0.00,Wunderground v.1.15,2013-03-15 19:18:00,
2013-03-15 14:23:00,44.4,39.6,29.81,East,88,0.0,3.0,83,0.00,,,0.00,Wunderground v.1.15,2013-03-15 19:23:00,
2013-03-15 14:29:00,44.5,39.3,29.81,East,90,2.0,4.0,82,0.00,,,0.00,Wunderground v.1.15,2013-03-15 19:29:00,
2013-03-15 14:34:00,44.8,39.6,29.81,East,88,1.0,4.0,82,0.00,,,0.00,Wunderground v.1.15,2013-03-15 19:34:00,
2013-03-15 14:39:00,44.8,39.3,29.80,East,92,4.0,5.0,81,0.00,,,0.00,Wunderground v.1.15,2013-03-15 19:39:00,
2013-03-15 14:44:00,44.7,39.2,29.80,ESE,103,2.0,5.0,81,0.00,,,0.00,Wunderground v.1.15,2013-03-15 19:44:00,
2013-03-15 14:49:00,44.7,39.9,29.80,East,90,2.0,5.0,83,0.00,,,0.00,Wunderground v.1.15,2013-03-15 19:49:00,
2013-03-15 14:54:00,44.7,39.5,29.79,ESE,113,4.0,7.0,82,0.00,,,0.00,Wunderground v.1.15,2013-03-15 19:54:00,
2013-03-15 14:59:00,44.7,39.5,29.78,ESE,109,5.0,8.0,82,0.00,,,0.00,Wunderground v.1.15,2013-03-15 19:59:00,
2013-03-15 15:04:00,44.6,39.4,29.78,ESE,105,5.0,5.0,82,0.00,,,0.00,Wunderground v.1.15,2013-03-15 20:04:00,
2013-03-15 15:09:00,44.4,38.9,29.77,East,96,1.0,5.0,81,0.00,,,0.00,Wunderground v.1.15,2013-03-15 20:09:00,
2013-03-15 15:14:00,44.2,39.1,29.76,ESE,105,2.0,7.0,82,0.00,,,0.00,Wunderground v.1.15,2013-03-15 20:14:00,
2013-03-15 15:19:00,44.1,39.0,29.76,East,96,5.0,7.0,82,0.00,,,0.00,Wunderground v.1.15,2013-03-15 20:19:00,
2013-03-15 15:24:00,44.0,39.2,29.75,East,84,2.0,6.0,83,0.00,,,0.00,Wunderground v.1.15,2013-03-15 20:24:00,
2013-03-15 15:29:00,43.9,39.1,29.74,East,81,4.0,7.0,83,0.00,,,0.00,Wunderground v.1.15,2013-03-15 20:29:00,
2013-03-15 15:34:00,43.7,38.9,29.74,East,96,4.0,5.0,83,0.00,,,0.00,Wunderground v.1.15,2013-03-15 20:34:00,
2013-03-15 15:39:00,43.5,38.7,29.74,East,95,6.0,7.0,83,0.00,,,0.00,Wunderground v.1.15,2013-03-15 20:39:00,
2013-03-15 15:44:00,43.4,38.9,29.74,ENE,78,3.0,5.0,84,0.00,,,0.00,Wunderground v.1.15,2013-03-15 20:44:00,
2013-03-15 15:49:00,43.4,39.2,29.74,East,88,2.0,6.0,85,0.00,,,0.00,Wunderground v.1.15,2013-03-15 20:49:00,
2013-03-15 15:55:00,43.3,38.8,29.74,East,87,4.0,6.0,84,0.00,,,0.00,Wunderground v.1.15,2013-03-15 20:55:00,
2013-03-15 16:00:00,43.3,39.1,29.73,East,90,2.0,3.0,85,0.00,,,0.00,Wunderground v.1.15,2013-03-15 21:00:00,
2013-03-15 16:05:00,43.1,38.9,29.74,East,92,0.0,5.0,85,0.00,,,0.00,Wunderground v.1.15,2013-03-15 21:05:00,
2013-03-15 16:10:00,43.0,38.5,29.74,East,82,1.0,6.0,84,0.00,,,0.00,Wunderground v.1.15,2013-03-15 21:10:00,
2013-03-15 16:15:00,42.9,38.7,29.76,East,82,0.0,4.0,85,0.00,,,0.00,Wunderground v.1.15,2013-03-15 21:15:00,
2013-03-15 16:20:00,42.9,38.7,29.76,East,87,2.0,4.0,85,0.00,,,0.00,Wunderground v.1.15,2013-03-15 21:20:00,
2013-03-15 16:25:00,43.1,38.9,29.76,East,87,2.0,3.0,85,0.00,,,0.00,Wunderground v.1.15,2013-03-15 21:25:00,
2013-03-15 16:30:00,43.3,39.1,29.76,SE,126,0.0,3.0,85,0.00,,,0.00,Wunderground v.1.15,2013-03-15 21:30:00,
2013-03-15 16:35:00,43.8,39.9,29.76,ESE,118,1.0,6.0,86,0.00,,,0.00,Wunderground v.1.15,2013-03-15 21:35:00,
2013-03-15 16:40:00,44.6,40.7,29.77,SE,124,0.0,6.0,86,0.00,,,0.00,Wunderground v.1.15,2013-03-15 21:40:00,
2013-03-15 16:45:00,45.4,41.2,29.77,SE,140,0.0,6.0,85,0.00,,,0.00,Wunderground v.1.15,2013-03-15 21:45:00,
2013-03-15 16:50:00,46.1,41.2,29.77,SE,126,2.0,7.0,83,0.00,,,0.00,Wunderground v.1.15,2013-03-15 21:50:00,
2013-03-15 16:55:00,46.6,41.7,29.77,SE,133,0.0,2.0,83,0.00,,,0.00,Wunderground v.1.15,2013-03-15 21:55:00,
2013-03-15 17:00:00,47.0,41.1,29.77,ESE,107,4.0,4.0,80,0.00,,,0.00,Wunderground v.1.15,2013-03-15 22:00:00,
2013-03-15 17:05:00,47.1,41.2,29.77,ESE,107,1.0,2.0,80,0.00,,,0.00,Wunderground v.1.15,2013-03-15 22:05:00,
2013-03-15 17:10:00,47.0,40.5,29.77,East,101,2.0,4.0,78,0.00,,,0.00,Wunderground v.1.15,2013-03-15 22:10:00,
2013-03-15 17:15:00,46.8,40.6,29.77,East,101,0.0,2.0,79,0.00,,,0.00,Wunderground v.1.15,2013-03-15 22:15:00,
2013-03-15 17:20:00,46.7,40.5,29.77,East,100,2.0,4.0,79,0.00,,,0.00,Wunderground v.1.15,2013-03-15 22:20:00,
2013-03-15 17:25:00,46.4,40.6,29.77,East,100,1.0,4.0,80,0.00,,,0.00,Wunderground v.1.15,2013-03-15 22:25:00,
2013-03-15 17:32:00,45.9,40.4,29.76,East,93,2.0,2.0,81,0.00,,,0.00,Wunderground v.1.15,2013-03-15 22:32:00,
2013-03-15 17:37:00,45.5,40.0,29.76,East,88,3.0,5.0,81,0.00,,,0.00,Wunderground v.1.15,2013-03-15 22:37:00,
2013-03-15 17:42:00,45.2,40.0,29.76,East,88,1.0,2.0,82,0.00,,,0.00,Wunderground v.1.15,2013-03-15 22:42:00,
2013-03-15 17:47:00,45.1,39.9,29.76,East,88,1.0,4.0,82,0.00,,,0.00,Wunderground v.1.15,2013-03-15 22:47:00,
2013-03-15 17:52:00,44.9,39.7,29.77,East,87,3.0,4.0,82,0.00,,,0.00,Wunderground v.1.15,2013-03-15 22:52:00,
2013-03-15 17:57:00,44.5,39.0,29.76,East,80,3.0,5.0,81,0.00,,,0.00,Wunderground v.1.15,2013-03-15 22:57:00,
2013-03-15 18:02:00,44.1,39.0,29.75,East,80,4.0,4.0,82,0.00,,,0.00,Wunderground v.1.15,2013-03-15 23:02:00,
2013-03-15 18:07:00,43.6,39.1,29.75,East,84,1.0,4.0,84,0.00,,,0.00,Wunderground v.1.15,2013-03-15 23:07:00,
2013-03-15 18:12:00,43.3,38.8,29.75,East,83,2.0,3.0,84,0.00,,,0.00,Wunderground v.1.15,2013-03-15 23:12:00,
2013-03-15 18:17:00,43.1,38.9,29.75,East,86,2.0,5.0,85,0.00,,,0.00,Wunderground v.1.15,2013-03-15 23:17:00,
2013-03-15 18:22:00,43.1,38.9,29.75,East,87,4.0,4.0,85,0.00,,,0.00,Wunderground v.1.15,2013-03-15 23:22:00,
2013-03-15 18:27:00,43.0,38.8,29.75,East,86,2.0,4.0,85,0.00,,,0.00,Wunderground v.1.15,2013-03-15 23:27:00,
2013-03-15 18:32:00,42.8,38.6,29.76,East,86,1.0,3.0,85,0.00,,,0.00,Wunderground v.1.15,2013-03-15 23:32:00,
2013-03-15 18:37:00,42.5,38.6,29.75,East,86,2.0,4.0,86,0.00,,,0.00,Wunderground v.1.15,2013-03-15 23:37:00,
2013-03-15 18:43:00,42.1,38.2,29.75,East,86,2.0,2.0,86,0.00,,,0.00,Wunderground v.1.15,2013-03-15 23:43:00,
2013-03-15 18:48:00,41.7,38.1,29.75,East,86,1.0,3.0,87,0.00,,,0.00,Wunderground v.1.15,2013-03-15 23:48:00,
2013-03-15 18:53:00,41.4,37.8,29.75,East,86,2.0,3.0,87,0.00,,,0.00,Wunderground v.1.15,2013-03-15 23:53:00,
2013-03-15 18:58:00,41.0,37.4,29.75,East,79,2.0,4.0,87,0.00,,,0.00,Wunderground v.1.15,2013-03-15 23:58:00,
2013-03-15 19:03:00,40.5,37.2,29.75,East,79,3.0,4.0,88,0.00,,,0.00,Wunderground v.1.15,2013-03-16 00:03:00,
2013-03-15 19:08:00,40.2,36.9,29.75,ENE,78,2.0,5.0,88,0.00,,,0.00,Wunderground v.1.15,2013-03-16 00:08:00,
2013-03-15 19:13:00,39.8,36.8,29.75,ENE,78,2.0,3.0,89,0.00,,,0.00,Wunderground v.1.15,2013-03-16 00:13:00,
2013-03-15 19:18:00,39.5,36.5,29.75,ENE,78,4.0,6.0,89,0.00,,,0.00,Wunderground v.1.15,2013-03-16 00:18:00,
2013-03-15 19:23:00,39.2,36.2,29.76,ENE,76,4.0,5.0,89,0.00,,,0.00,Wunderground v.1.15,2013-03-16 00:23:00,
2013-03-15 19:28:00,38.9,36.2,29.76,ENE,76,4.0,6.0,90,0.00,,,0.00,Wunderground v.1.15,2013-03-16 00:28:00,
2013-03-15 19:33:00,38.7,36.0,29.75,ENE,70,6.0,11.0,90,0.00,,,0.00,Wunderground v.1.15,2013-03-16 00:33:00,
2013-03-15 19:38:00,38.5,35.8,29.75,ENE,71,1.0,11.0,90,0.00,,,0.00,Wunderground v.1.15,2013-03-16 00:38:00,
2013-03-15 19:43:00,38.4,35.7,29.76,ENE,71,3.0,6.0,90,0.00,,,0.00,Wunderground v.1.15,2013-03-16 00:43:00,
2013-03-15 19:48:00,38.3,35.6,29.75,ENE,71,3.0,6.0,90,0.00,,,0.00,Wunderground v.1.15,2013-03-16 00:48:00,
2013-03-15 19:53:00,38.1,35.4,29.75,ENE,71,2.0,6.0,90,0.00,,,0.00,Wunderground v.1.15,2013-03-16 00:53:00,
2013-03-15 19:58:00,37.9,35.2,29.74,ENE,76,2.0,6.0,90,0.00,,,0.00,Wunderground v.1.15,2013-03-16 00:58:00,
2013-03-15 20:03:00,37.8,35.1,29.74,ENE,78,2.0,6.0,90,0.00,,,0.00,Wunderground v.1.15,2013-03-16 01:03:00,
2013-03-15 20:08:00,37.6,35.2,29.73,East,79,2.0,7.0,91,0.00,,,0.00,Wunderground v.1.15,2013-03-16 01:08:00,
2013-03-15 20:13:00,37.3,34.9,29.73,East,79,1.0,3.0,91,0.00,,,0.00,Wunderground v.1.15,2013-03-16 01:13:00,
2013-03-15 20:18:00,37.1,34.7,29.74,East,79,1.0,4.0,91,0.00,,,0.00,Wunderground v.1.15,2013-03-16 01:18:00,
2013-03-15 20:23:00,36.9,34.5,29.74,East,79,2.0,2.0,91,0.00,,,0.00,Wunderground v.1.15,2013-03-16 01:23:00,
2013-03-15 20:28:00,36.7,34.3,29.73,East,79,3.0,4.0,91,0.00,,,0.00,Wunderground v.1.15,2013-03-16 01:28:00,
2013-03-15 20:33:00,36.6,34.5,29.73,East,79,2.0,3.0,92,0.00,,,0.00,Wunderground v.1.15,2013-03-16 01:33:00,
2013-03-15 20:38:00,36.6,34.5,29.73,East,79,2.0,4.0,92,0.00,,,0.00,Wunderground v.1.15,2013-03-16 01:38:00,
2013-03-15 20:43:00,36.4,34.3,29.73,East,79,0.0,4.0,92,0.00,,,0.00,Wunderground v.1.15,2013-03-16 01:43:00,
2013-03-15 20:48:00,36.3,34.2,29.73,East,79,0.0,4.0,92,0.00,,,0.00,Wunderground v.1.15,2013-03-16 01:48:00,
2013-03-15 20:53:00,36.3,34.2,29.73,East,79,1.0,4.0,92,0.00,,,0.00,Wunderground v.1.15,2013-03-16 01:53:00,
2013-03-15 20:58:00,36.3,34.5,29.73,East,79,4.0,6.0,93,0.00,,,0.00,Wunderground v.1.15,2013-03-16 01:58:00,
2013-03-15 21:03:00,36.4,34.6,29.73,East,79,2.0,4.0,93,0.00,,,0.00,Wunderground v.1.15,2013-03-16 02:03:00,
2013-03-15 21:08:00,36.3,34.2,29.74,East,79,2.0,4.0,92,0.00,,,0.00,Wunderground v.1.15,2013-03-16 02:08:00,
2013-03-15 21:13:00,36.2,34.1,29.73,East,79,2.0,3.0,92,0.00,,,0.00,Wunderground v.1.15,2013-03-16 02:13:00,
2013-03-15 21:18:00,36.2,34.4,29.73,East,79,1.0,4.0,93,0.00,,,0.00,Wunderground v.1.15,2013-03-16 02:18:00,
2013-03-15 21:23:00,36.2,34.4,29.73,East,79,2.0,4.0,93,0.00,,,0.00,Wunderground v.1.15,2013-03-16 02:23:00,
2013-03-15 21:28:00,36.2,34.1,29.73,East,79,1.0,6.0,92,0.00,,,0.00,Wunderground v.1.15,2013-03-16 02:28:00,
2013-03-15 21:33:00,36.0,33.9,29.73,East,79,2.0,4.0,92,0.00,,,0.00,Wunderground v.1.15,2013-03-16 02:33:00,
2013-03-15 21:38:00,35.7,33.6,29.73,East,79,4.0,6.0,92,0.00,,,0.00,Wunderground v.1.15,2013-03-16 02:38:00,
2013-03-15 21:43:00,35.5,33.4,29.74,East,79,0.0,3.0,92,0.00,,,0.00,Wunderground v.1.15,2013-03-16 02:43:00,
2013-03-15 21:48:00,35.3,33.2,29.74,East,79,2.0,5.0,92,0.00,,,0.00,Wunderground v.1.15,2013-03-16 02:48:00,
2013-03-15 21:53:00,35.1,33.3,29.73,East,79,1.0,3.0,93,0.00,,,0.00,Wunderground v.1.15,2013-03-16 02:53:00,
2013-03-15 21:58:00,35.0,33.2,29.74,East,79,0.0,3.0,93,0.00,,,0.00,Wunderground v.1.15,2013-03-16 02:58:00,
2013-03-15 22:03:00,34.8,33.0,29.75,East,79,0.0,1.0,93,0.00,,,0.00,Wunderground v.1.15,2013-03-16 03:03:00,
2013-03-15 22:08:00,34.8,33.0,29.76,NNE,16,7.0,7.0,93,0.00,,,0.00,Wunderground v.1.15,2013-03-16 03:08:00,
2013-03-15 22:13:00,34.6,32.8,29.76,NNE,13,0.0,4.0,93,0.00,,,0.00,Wunderground v.1.15,2013-03-16 03:13:00,
2013-03-15 22:18:00,34.4,32.6,29.76,NNE,13,0.0,4.0,93,0.00,,,0.00,Wunderground v.1.15,2013-03-16 03:18:00,
2013-03-15 22:23:00,34.2,32.4,29.76,NNE,14,0.0,2.0,93,0.00,,,0.00,Wunderground v.1.15,2013-03-16 03:23:00,
2013-03-15 22:28:00,34.1,32.3,29.76,NNE,14,0.0,2.0,93,0.00,,,0.00,Wunderground v.1.15,2013-03-16 03:28:00,
2013-03-15 22:33:00,34.0,32.2,29.76,NNE,14,1.0,1.0,93,0.00,,,0.00,Wunderground v.1.15,2013-03-16 03:33:00,
2013-03-15 22:38:00,34.0,32.5,29.76,NNE,14,1.0,1.0,94,0.00,,,0.00,Wunderground v.1.15,2013-03-16 03:38:00,
2013-03-15 22:43:00,34.1,32.6,29.77,North,11,2.0,4.0,94,0.00,,,0.00,Wunderground v.1.15,2013-03-16 03:43:00,
2013-03-15 22:48:00,34.0,32.5,29.76,North,11,1.0,4.0,94,0.00,,,0.00,Wunderground v.1.15,2013-03-16 03:48:00,
2013-03-15 22:53:00,34.0,32.5,29.75,NNE,16,1.0,2.0,94,0.00,,,0.00,Wunderground v.1.15,2013-03-16 03:53:00,
2013-03-15 22:58:00,33.9,32.4,29.75,NNE,17,1.0,3.0,94,0.00,,,0.00,Wunderground v.1.15,2013-03-16 03:58:00,
2013-03-15 23:00:00,33.9,32.4,29.76,NNE,17,0.0,1.0,94,0.00,,,0.00,Wunderground v.1.15,2013-03-16 04:00:00,
2013-03-15 23:05:00,33.8,32.3,29.76,NNE,17,0.0,1.0,94,0.00,,,0.00,Wunderground v.1.15,2013-03-16 04:05:00,
2013-03-15 23:10:00,33.8,32.3,29.76,NNE,17,0.0,1.0,94,0.00,,,0.00,Wunderground v.1.15,2013-03-16 04:10:00,
2013-03-15 23:16:00,33.8,32.3,29.75,NNE,17,0.0,1.0,94,0.00,,,0.00,Wunderground v.1.15,2013-03-16 04:16:00,
2013-03-15 23:22:00,33.8,32.3,29.77,NNE,12,8.0,8.0,94,0.00,,,0.00,Wunderground v.1.15,2013-03-16 04:22:00,
2013-03-15 23:27:00,33.7,32.2,29.77,North,11,7.0,12.0,94,0.00,,,0.00,Wunderground v.1.15,2013-03-16 04:27:00,
2013-03-15 23:32:00,33.6,32.3,29.77,North,11,15.0,15.0,95,0.00,,,0.00,Wunderground v.1.15,2013-03-16 04:32:00,
2013-03-15 23:37:00,33.4,32.1,29.77,NNE,13,11.0,17.0,95,0.00,,,0.00,Wunderground v.1.15,2013-03-16 04:37:00,
2013-03-15 23:42:00,33.3,32.0,29.78,North,5,7.0,13.0,95,0.00,,,0.00,Wunderground v.1.15,2013-03-16 04:42:00,
2013-03-15 23:47:00,33.2,31.9,29.78,North,9,5.0,16.0,95,0.00,,,0.00,Wunderground v.1.15,2013-03-16 04:47:00,
2013-03-15 23:52:00,33.2,31.9,29.77,North,10,10.0,12.0,95,0.00,,,0.00,Wunderground v.1.15,2013-03-16 04:52:00,